Aviation Digital Data Service (ADDS)

Output produced by TAFs form (2348 UTC 18 July 2018)
found at http://www.aviationweather.gov/adds/tafs/
 
RJCK 182325Z 20009KT 4900 BR FEW001 BKN003 BKN004 16/15 Q1013 RMK 1ST001 5ST003 6ST004 A2992
TAF RJCK 182316Z 1900/2006 19010KT 9999 FEW004 BKN015 
     TEMPO 1900/1906 4000 BR FEW002 BKN004 
     TEMPO 1906/1915 0700 -SHRA FG VV001 
     TEMPO 1915/2000 0500 -SHRA FG VV001 
     TEMPO 2000/2006 FEW002 BKN005